Time;durP1;ratioP1;P1;durP2;ratioP2;P2;SDS_P1;SDS_P2;PMS_P1;PMS_P2;Temp;Humidity;BMP_temperature;BMP_pressure;BME280_temperature;BME280_humidity;BME280_pressure;Samples;Min_cycle;Max_cycle;Signal;HPM_P1;HPM_P2
2023/03/18 00:01:56;;;;;;;12.90;7.40;;;;;;;3.61;47.99;101056.55;103697;279;40110;-71
2023/03/18 00:04:30;;;;;;;11.30;6.50;;;;;;;3.60;47.76;101056.20;103716;279;38545;-73
2023/03/18 00:07:05;;;;;;;15.30;7.60;;;;;;;3.61;47.67;101059.48;103732;279;38392;-70
2023/03/18 00:09:41;;;;;;;14.80;7.50;;;;;;;3.62;47.60;101056.89;103658;279;39074;-73
2023/03/18 00:12:15;;;;;;;12.40;7.10;;;;;;;3.63;47.77;101053.45;103750;279;39405;-73
2023/03/18 00:14:49;;;;;;;13.50;7.80;;;;;;;3.60;47.83;101053.10;103744;279;39652;-74
2023/03/18 00:17:25;;;;;;;10.80;6.70;;;;;;;3.58;47.79;101052.41;103684;279;38501;-73
2023/03/18 00:20:04;;;;;;;11.90;6.70;;;;;;;3.57;47.71;101052.75;103714;279;38237;-74
2023/03/18 00:22:39;;;;;;;11.30;6.10;;;;;;;3.56;47.67;101054.65;103577;279;190108;-72
2023/03/18 00:25:15;;;;;;;10.60;5.90;;;;;;;3.55;47.74;101046.02;103716;279;38734;-73
2023/03/18 00:27:49;;;;;;;10.80;6.30;;;;;;;3.54;47.77;101045.84;103724;280;39738;-71
2023/03/18 00:30:24;;;;;;;12.40;6.70;;;;;;;3.52;47.77;101043.25;103702;280;38506;-73
2023/03/18 00:32:59;;;;;;;10.90;5.90;;;;;;;3.51;47.81;101049.98;103713;280;39719;-73
2023/03/18 00:35:33;;;;;;;12.50;6.50;;;;;;;3.50;47.80;101044.29;103702;278;38686;-72
2023/03/18 00:38:08;;;;;;;12.30;6.00;;;;;;;3.47;47.85;101037.55;103678;279;39723;-72
2023/03/18 00:40:52;;;;;;;13.10;6.50;;;;;;;3.45;47.85;101034.97;103613;279;172957;-72
2023/03/18 00:43:28;;;;;;;12.80;6.40;;;;;;;3.42;47.96;101028.23;103575;279;175680;-72
2023/03/18 00:46:02;;;;;;;12.60;6.40;;;;;;;3.39;47.94;101027.02;103696;279;38265;-73
2023/03/18 00:48:36;;;;;;;12.90;6.00;;;;;;;3.38;48.00;101022.52;103722;279;38588;-73
2023/03/18 00:51:12;;;;;;;9.40;5.70;;;;;;;3.35;48.08;101026.14;103713;279;38254;-74
2023/03/18 00:53:47;;;;;;;10.60;6.10;;;;;;;3.32;48.00;101020.28;103566;279;175672;-72
2023/03/18 00:56:22;;;;;;;11.80;5.70;;;;;;;3.29;47.97;101018.89;103709;279;39512;-73
2023/03/18 00:58:57;;;;;;;10.00;5.70;;;;;;;3.28;48.00;101018.89;103686;279;38329;-72
2023/03/18 01:01:31;;;;;;;11.00;5.60;;;;;;;3.27;48.01;101015.79;103656;280;39450;-74
2023/03/18 01:04:05;;;;;;;9.90;6.10;;;;;;;3.26;47.94;101015.78;103667;280;39018;-72
2023/03/18 01:06:40;;;;;;;9.30;5.60;;;;;;;3.24;47.92;101013.54;103569;281;39638;-72
2023/03/18 01:09:15;;;;;;;10.90;5.20;;;;;;;3.22;47.91;101005.77;103607;279;39267;-73
2023/03/18 01:11:49;;;;;;;8.90;5.70;;;;;;;3.21;48.08;101001.45;103685;279;39947;-73
2023/03/18 01:14:23;;;;;;;12.30;6.10;;;;;;;3.19;47.99;101001.12;103718;279;38473;-74
2023/03/18 01:16:56;;;;;;;10.40;5.20;;;;;;;3.17;47.99;100996.11;103740;279;38407;-72
2023/03/18 01:19:31;;;;;;;11.30;5.70;;;;;;;3.16;48.05;100993.69;103687;279;39454;-73
2023/03/18 01:22:06;;;;;;;9.20;5.20;;;;;;;3.14;48.05;100996.80;103690;279;39390;-72
2023/03/18 01:24:41;;;;;;;8.30;5.20;;;;;;;3.13;48.02;100991.10;103706;279;39170;-71
2023/03/18 01:27:14;;;;;;;10.90;5.70;;;;;;;3.12;48.12;100993.85;103726;279;38496;-71
2023/03/18 01:29:48;;;;;;;10.00;5.30;;;;;;;3.10;48.10;100989.19;103728;279;39973;-72
2023/03/18 01:32:22;;;;;;;10.10;5.50;;;;;;;3.09;48.08;100992.81;103713;279;39429;-72
2023/03/18 01:34:58;;;;;;;11.40;5.60;;;;;;;3.09;48.00;100991.60;103606;279;189899;-72
2023/03/18 01:37:32;;;;;;;9.70;5.10;;;;;;;3.08;47.99;100989.88;103707;279;39955;-70
2023/03/18 01:40:09;;;;;;;8.90;5.80;;;;;;;3.08;48.11;100989.54;103696;279;39351;-72
2023/03/18 01:42:44;;;;;;;9.00;5.00;;;;;;;3.07;48.01;100982.98;103720;279;39120;-72
2023/03/18 01:45:22;;;;;;;8.00;5.30;;;;;;;3.04;48.10;100982.64;103696;279;38687;-74
2023/03/18 01:47:57;;;;;;;9.00;5.20;;;;;;;3.02;48.01;100982.29;103695;280;38815;-72
2023/03/18 01:50:33;;;;;;;7.60;4.40;;;;;;;3.01;47.96;100980.90;103704;280;38255;-71
2023/03/18 01:53:09;;;;;;;8.40;4.70;;;;;;;3.01;47.97;100978.48;103671;280;39578;-73
2023/03/18 01:55:44;;;;;;;10.80;5.10;;;;;;;2.99;47.97;100982.27;103734;279;38299;-70
2023/03/18 01:58:23;;;;;;;7.60;4.80;;;;;;;2.97;47.99;100983.48;103696;279;39505;-72
2023/03/18 02:01:02;;;;;;;11.50;5.30;;;;;;;2.96;47.98;100978.64;103747;279;38700;-72
2023/03/18 02:03:36;;;;;;;12.40;5.30;;;;;;;2.95;47.96;100978.47;103765;279;38285;-69
2023/03/18 02:06:11;;;;;;;9.30;4.70;;;;;;;2.90;47.90;100978.80;103723;279;38522;-72
2023/03/18 02:08:44;;;;;;;8.40;4.90;;;;;;;2.91;47.97;100982.59;103609;279;172628;-71
2023/03/18 02:11:18;;;;;;;9.30;5.10;;;;;;;2.90;47.96;100985.17;103733;279;38471;-72
2023/03/18 02:13:52;;;;;;;9.40;4.60;;;;;;;2.89;48.01;100985.34;103714;279;38562;-70
2023/03/18 02:16:28;;;;;;;9.50;4.80;;;;;;;2.88;48.03;100988.60;103698;280;38364;-73
2023/03/18 02:19:06;;;;;;;15.30;4.90;;;;;;;2.87;48.08;100987.41;103554;280;38844;-73
2023/03/18 02:21:47;;;;;;;10.40;5.40;;;;;;;2.86;48.09;100983.45;103541;280;41520;-72
2023/03/18 02:24:35;;;;;;;9.70;4.80;;;;;;;2.83;48.11;100982.39;103687;279;39955;-72
2023/03/18 02:27:19;;;;;;;8.90;4.80;;;;;;;2.79;48.17;100980.48;103730;279;38224;-71
2023/03/18 02:29:59;;;;;;;9.30;4.40;;;;;;;2.78;48.32;100979.10;103716;279;38441;-74
2023/03/18 02:32:33;;;;;;;12.00;4.80;;;;;;;2.76;48.36;100976.00;103705;267;39902;-73
2023/03/18 02:35:12;;;;;;;10.80;4.80;;;;;;;2.75;48.41;100975.30;103632;279;39428;-71
2023/03/18 02:37:45;;;;;;;;;;;;;;;2.72;48.44;100977.02;103713;279;39416;-70
2023/03/18 02:40:26;;;;;;;9.30;4.60;;;;;;;2.66;48.61;100973.88;103715;279;39498;-71
2023/03/18 02:43:16;;;;;;;10.10;4.60;;;;;;;2.66;48.66;100971.48;103673;279;38804;-71
2023/03/18 02:46:05;;;;;;;7.00;4.40;;;;;;;2.68;48.54;100973.73;103722;279;38249;-73
2023/03/18 02:48:42;;;;;;;10.00;4.50;;;;;;;2.69;48.62;100973.73;103727;279;38240;-73
2023/03/18 02:51:17;;;;;;;13.40;4.70;;;;;;;2.70;48.69;100976.48;103725;267;38646;-71
2023/03/18 02:53:51;;;;;;;7.40;4.10;;;;;;;2.69;48.56;100969.24;103772;279;38236;-72
2023/03/18 02:56:25;;;;;;;7.80;4.60;;;;;;;2.68;48.64;100964.59;103771;279;38234;-72
2023/03/18 02:58:59;;;;;;;11.50;5.00;;;;;;;2.67;48.71;100960.29;103734;279;39485;-70
2023/03/18 03:01:34;;;;;;;9.60;4.50;;;;;;;2.67;48.71;100961.83;103652;279;40197;-71
2023/03/18 03:04:08;;;;;;;7.50;4.60;;;;;;;2.67;48.65;100957.00;103665;279;39109;-70
2023/03/18 03:06:42;;;;;;;9.00;4.30;;;;;;;2.66;48.80;100954.24;103747;279;38345;-71
2023/03/18 03:09:17;;;;;;;8.90;4.00;;;;;;;2.65;48.80;100953.04;103752;279;38591;-71
2023/03/18 03:11:51;;;;;;;7.10;4.30;;;;;;;2.63;48.84;100948.73;103769;279;38630;-73
2023/03/18 03:14:25;;;;;;;7.90;4.00;;;;;;;2.62;48.80;100951.48;103721;279;39409;-73
2023/03/18 03:16:59;;;;;;;7.90;4.50;;;;;;;2.60;48.88;100948.71;103731;279;38237;-71
2023/03/18 03:19:33;;;;;;;7.90;3.80;;;;;;;2.57;48.84;100950.95;103733;279;39500;-71
2023/03/18 03:22:07;;;;;;;6.80;3.50;;;;;;;2.58;48.77;100947.85;103736;279;39414;-74
2023/03/18 03:24:46;;;;;;;10.00;4.10;;;;;;;2.59;48.78;100948.54;103740;278;38815;-72
2023/03/18 03:27:20;;;;;;;8.70;4.10;;;;;;;2.58;48.78;100949.58;103660;279;38231;-71
2023/03/18 03:29:54;;;;;;;8.20;3.60;;;;;;;2.57;48.71;100947.15;103752;279;39398;-72
2023/03/18 03:32:29;;;;;;;8.80;4.20;;;;;;;2.57;48.68;100950.61;103724;279;39421;-70
2023/03/18 03:35:04;;;;;;;8.00;3.70;;;;;;;2.57;48.70;100948.19;103776;279;39289;-72
2023/03/18 03:37:37;;;;;;;8.60;3.30;;;;;;;2.57;48.56;100943.02;103734;267;38622;-69
2023/03/18 03:40:14;;;;;;;5.80;3.40;;;;;;;2.58;48.60;100946.64;103799;279;38252;-72
2023/03/18 03:42:49;;;;;;;6.00;4.00;;;;;;;2.59;48.52;100945.27;103761;279;38331;-72
2023/03/18 03:45:23;;;;;;;7.80;4.40;;;;;;;2.58;48.49;100948.37;103725;279;38407;-73
2023/03/18 03:47:57;;;;;;;7.50;3.70;;;;;;;2.58;48.50;100950.08;103691;279;39582;-73
2023/03/18 03:50:31;;;;;;;7.00;3.70;;;;;;;2.58;48.36;100949.92;103712;280;38208;-71
2023/03/18 03:53:05;;;;;;;5.50;3.10;;;;;;;2.58;48.31;100951.13;103695;280;38994;-71
2023/03/18 03:55:40;;;;;;;7.80;3.30;;;;;;;2.58;48.30;100949.75;103719;280;39713;-70
2023/03/18 03:58:14;;;;;;;8.20;3.40;;;;;;;2.56;48.41;100954.73;103686;278;39586;-71
2023/03/18 04:00:48;;;;;;;6.40;3.10;;;;;;;2.55;48.29;100956.80;103730;280;38686;-71
2023/03/18 04:03:22;;;;;;;6.80;3.30;;;;;;;2.55;48.26;100956.96;103681;280;40640;-71
2023/03/18 04:05:56;;;;;;;5.50;3.10;;;;;;;2.53;48.39;100958.16;103699;280;39847;-72
2023/03/18 04:08:30;;;;;;;7.70;3.30;;;;;;;2.52;48.23;100960.91;103653;280;38603;-72
2023/03/18 04:11:04;;;;;;;9.40;3.60;;;;;;;2.51;48.32;100961.42;103698;280;38970;-73
2023/03/18 04:13:38;;;;;;;6.20;3.20;;;;;;;2.49;48.19;100957.11;103689;280;38246;-73
2023/03/18 04:16:13;;;;;;;6.80;3.70;;;;;;;2.49;48.27;100960.04;103703;280;38788;-74
2023/03/18 04:18:47;;;;;;;6.70;3.60;;;;;;;2.47;48.12;100956.92;103635;281;38734;-72
2023/03/18 04:21:21;;;;;;;7.30;3.50;;;;;;;2.46;48.18;100956.92;103655;269;38432;-72
2023/03/18 04:23:55;;;;;;;8.90;4.00;;;;;;;2.46;48.11;100957.63;103719;280;39012;-72
2023/03/18 04:26:31;;;;;;;7.20;3.60;;;;;;;2.43;48.30;100960.19;103730;280;38563;-69
2023/03/18 04:29:05;;;;;;;7.90;3.40;;;;;;;2.40;48.24;100967.92;103603;280;175752;-72
2023/03/18 04:31:39;;;;;;;6.60;3.40;;;;;;;2.38;48.27;100969.98;103696;280;38571;-72
2023/03/18 04:34:13;;;;;;;5.80;3.30;;;;;;;2.38;48.16;100971.02;103650;280;39448;-72
2023/03/18 04:36:47;;;;;;;7.30;3.50;;;;;;;2.38;48.29;100971.02;103691;280;38237;-74
2023/03/18 04:39:21;;;;;;;9.70;3.70;;;;;;;2.36;48.19;100970.14;103647;280;39488;-73
2023/03/18 04:41:56;;;;;;;10.00;3.70;;;;;;;2.35;48.24;100976.16;103674;280;38242;-71
2023/03/18 04:44:30;;;;;;;11.30;3.70;;;;;;;2.33;48.16;100977.52;103698;280;39201;-70
2023/03/18 04:47:04;;;;;;;5.90;3.50;;;;;;;2.31;48.27;100974.24;103688;280;38251;-70
2023/03/18 04:49:40;;;;;;;7.30;3.70;;;;;;;2.29;48.21;100971.65;103692;280;38394;-71
2023/03/18 04:52:15;;;;;;;5.90;3.70;;;;;;;2.29;48.34;100975.09;103653;280;38285;-72
2023/03/18 04:54:49;;;;;;;7.20;3.90;;;;;;;2.28;48.29;100974.92;103682;280;40464;-70
2023/03/18 04:57:23;;;;;;;8.60;4.10;;;;;;;2.28;48.24;100976.11;103649;268;40488;-71
2023/03/18 04:59:57;;;;;;;7.80;3.00;;;;;;;2.29;48.27;100969.58;103731;280;38491;-72
2023/03/18 05:02:30;;;;;;;10.90;3.70;;;;;;;2.30;48.13;100967.69;103695;268;39701;-73
2023/03/18 05:05:04;;;;;;;8.20;3.60;;;;;;;2.32;48.17;100963.58;103675;280;38290;-72
2023/03/18 05:07:38;;;;;;;7.60;4.00;;;;;;;2.35;48.17;100963.93;103692;280;38247;-70
2023/03/18 05:10:14;;;;;;;5.50;3.20;;;;;;;2.37;48.09;100968.60;103580;280;39456;-70
2023/03/18 05:12:49;;;;;;;7.70;3.40;;;;;;;2.40;48.11;100968.60;103691;280;38536;-71
2023/03/18 05:15:23;;;;;;;5.00;3.50;;;;;;;2.45;47.99;100961.73;103649;280;38391;-72
2023/03/18 05:17:58;;;;;;;9.40;3.30;;;;;;;2.50;47.96;100961.94;103655;280;38247;-72
2023/03/18 05:20:31;;;;;;;6.40;3.40;;;;;;;2.54;47.84;100962.98;103700;280;38374;-71
2023/03/18 05:23:05;;;;;;;10.10;4.30;;;;;;;2.59;47.80;100958.88;103658;280;39711;-72
2023/03/18 05:25:39;;;;;;;8.00;3.50;;;;;;;2.66;47.87;100965.10;103698;268;38872;-72
2023/03/18 05:28:13;;;;;;;6.90;3.10;;;;;;;2.72;47.44;100963.58;103716;280;38552;-72
2023/03/18 05:30:47;;;;;;;6.00;3.30;;;;;;;2.80;47.36;100957.73;103693;280;39947;-73
2023/03/18 05:33:22;;;;;;;5.80;3.10;;;;;;;2.88;47.37;100961.04;103666;280;38516;-74
2023/03/18 05:35:56;;;;;;;7.40;3.50;;;;;;;2.97;47.36;100963.48;103609;280;40036;-69
2023/03/18 05:38:30;;;;;;;7.30;3.70;;;;;;;3.03;47.22;100956.95;103678;280;39841;-71
2023/03/18 05:41:04;;;;;;;5.50;3.00;;;;;;;3.09;47.03;100955.06;103030;280;912076;-71
2023/03/18 05:43:38;;;;;;;6.50;3.60;;;;;;;3.17;47.11;100952.84;103081;280;915237;-70
2023/03/18 05:46:13;;;;;;;7.90;3.00;;;;;;;3.26;46.78;100948.36;103677;280;38720;-70
2023/03/18 05:48:47;;;;;;;5.30;3.00;;;;;;;3.35;46.38;100948.71;103689;280;38427;-72
2023/03/18 05:51:21;;;;;;;9.00;3.00;;;;;;;3.47;45.96;100946.83;103700;280;39701;-70
2023/03/18 05:53:55;;;;;;;5.00;3.10;;;;;;;3.66;46.24;100949.06;103705;280;39717;-69
2023/03/18 05:56:30;;;;;;;6.00;3.60;;;;;;;4.34;46.56;100951.00;103724;280;39724;-72
2023/03/18 05:59:04;;;;;;;6.70;3.70;;;;;;;5.49;45.73;100946.90;103261;280;623189;-71
2023/03/18 06:01:38;;;;;;;6.40;3.60;;;;;;;6.93;44.87;100941.53;103563;280;175088;-73
2023/03/18 06:04:12;;;;;;;5.00;3.10;;;;;;;8.28;42.13;100939.30;103672;280;38790;-74
2023/03/18 06:06:47;;;;;;;5.60;3.00;;;;;;;9.28;40.10;100926.75;103733;280;39738;-72
2023/03/18 06:09:21;;;;;;;6.50;2.70;;;;;;;10.05;38.18;100926.01;103554;280;38709;-73
2023/03/18 06:11:54;;;;;;;6.30;3.30;;;;;;;10.81;36.97;100925.10;103708;280;38408;-72
2023/03/18 06:14:28;;;;;;;5.80;3.00;;;;;;;11.58;35.94;100918.63;103699;280;38821;-72
2023/03/18 06:17:02;;;;;;;5.10;3.00;;;;;;;12.15;34.74;100921.05;103697;280;38365;-71
2023/03/18 06:19:36;;;;;;;6.40;3.00;;;;;;;12.50;32.26;100923.31;103694;280;38224;-74
2023/03/18 06:22:11;;;;;;;7.10;3.40;;;;;;;12.55;31.81;100921.52;103700;280;38244;-70
2023/03/18 06:24:45;;;;;;;6.50;3.40;;;;;;;12.64;31.33;100925.23;103786;280;38492;-73
2023/03/18 06:27:19;;;;;;;5.20;3.10;;;;;;;12.27;30.89;100921.85;103718;280;39200;-71
2023/03/18 06:29:53;;;;;;;6.20;3.40;;;;;;;12.24;32.19;100920.92;103699;280;38397;-74
2023/03/18 06:32:27;;;;;;;4.80;3.20;;;;;;;12.32;31.89;100920.27;103706;280;38377;-74
2023/03/18 06:35:00;;;;;;;7.60;3.10;;;;;;;12.30;31.25;100927.89;103706;280;38360;-72
2023/03/18 06:37:34;;;;;;;9.00;3.70;;;;;;;12.01;30.82;100923.48;103681;280;38266;-72
2023/03/18 06:40:11;;;;;;;5.00;2.90;;;;;;;11.67;31.28;100923.91;103670;280;38229;-71
2023/03/18 06:42:45;;;;;;;6.30;3.30;;;;;;;11.54;31.35;100918.93;103038;280;905667;-72
2023/03/18 06:45:20;;;;;;;4.10;3.10;;;;;;;11.43;32.14;100925.77;103682;280;39381;-72
2023/03/18 06:47:54;;;;;;;6.40;3.30;;;;;;;11.42;31.64;100924.59;103556;280;189045;-72
2023/03/18 06:50:28;;;;;;;7.50;3.40;;;;;;;11.36;31.68;100931.06;103694;280;38355;-74
2023/03/18 06:53:02;;;;;;;9.50;3.30;;;;;;;11.29;31.79;100930.77;103707;280;38358;-73
2023/03/18 06:55:37;;;;;;;4.30;3.00;;;;;;;11.22;31.41;100933.63;103603;280;174826;-73
2023/03/18 06:58:11;;;;;;;7.90;3.70;;;;;;;11.17;31.06;100929.60;103697;280;39649;-74
2023/03/18 07:00:46;;;;;;;6.00;3.10;;;;;;;11.04;31.37;100928.77;103682;280;38326;-71
2023/03/18 07:03:20;;;;;;;5.20;2.80;;;;;;;11.03;30.89;100931.26;103712;280;38403;-72
2023/03/18 07:05:54;;;;;;;5.80;3.40;;;;;;;10.99;31.50;100935.90;103674;280;39377;-73
2023/03/18 07:08:31;;;;;;;5.20;2.70;;;;;;;11.11;31.81;100932.55;103699;278;39408;-73
2023/03/18 07:11:07;;;;;;;6.20;2.90;;;;;;;11.21;31.24;100933.98;103538;281;39635;-72
2023/03/18 07:13:42;;;;;;;5.00;3.00;;;;;;;11.20;30.81;100937.69;103533;281;38257;-72
2023/03/18 07:16:16;;;;;;;6.20;3.30;;;;;;;11.02;31.09;100937.38;103556;281;38356;-72
2023/03/18 07:18:51;;;;;;;6.20;2.90;;;;;;;10.92;31.39;100941.53;103537;281;38237;-71
2023/03/18 07:21:26;;;;;;;6.60;3.40;;;;;;;10.94;32.21;100942.88;103588;281;39390;-74
2023/03/18 07:24:02;;;;;;;6.40;3.10;;;;;;;11.23;31.88;100941.61;103499;281;38253;-73
2023/03/18 07:26:37;;;;;;;5.30;3.00;;;;;;;11.60;30.87;100942.35;103552;281;38356;-73
2023/03/18 07:29:15;;;;;;;7.00;3.10;;;;;;;11.83;30.74;100943.69;103525;281;38517;-74
2023/03/18 07:31:50;;;;;;;6.80;3.40;;;;;;;12.04;30.22;100948.73;103569;281;38584;-73
2023/03/18 07:34:26;;;;;;;5.90;3.40;;;;;;;12.31;31.15;100944.97;103541;281;38384;-73
2023/03/18 07:37:01;;;;;;;5.20;3.00;;;;;;;12.74;30.51;100949.18;103560;281;39680;-73
2023/03/18 07:39:36;;;;;;;6.20;3.30;;;;;;;12.95;29.97;100943.98;103482;282;38921;-73
2023/03/18 07:42:11;;;;;;;6.70;3.50;;;;;;;13.26;29.83;100947.54;103569;270;38426;-71
2023/03/18 07:44:46;;;;;;;3.90;3.10;;;;;;;13.63;29.40;100948.48;103537;281;38411;-71
2023/03/18 07:47:22;;;;;;;6.10;3.50;;;;;;;13.96;27.81;100949.77;103560;281;38354;-73
2023/03/18 07:49:57;;;;;;;5.10;3.30;;;;;;;14.23;28.28;100949.43;103573;281;38814;-73
2023/03/18 07:52:36;;;;;;;5.50;3.40;;;;;;;14.75;28.39;100951.69;103469;281;38525;-75
2023/03/18 07:55:13;;;;;;;5.10;3.30;;;;;;;15.20;26.83;100940.61;103558;281;38783;-73
2023/03/18 07:57:51;;;;;;;5.40;3.50;;;;;;;15.47;25.93;100937.19;103559;281;38708;-74
2023/03/18 08:00:29;;;;;;;3.20;2.80;;;;;;;15.69;25.62;100937.86;103575;281;38279;-73
2023/03/18 08:03:04;;;;;;;6.30;3.40;;;;;;;15.89;24.87;100936.16;103543;281;39460;-72
2023/03/18 08:05:39;;;;;;;5.40;3.50;;;;;;;16.06;24.68;100937.74;103548;281;38683;-74
2023/03/18 08:08:15;;;;;;;7.60;3.90;;;;;;;16.27;25.31;100934.52;103545;281;38225;-74
2023/03/18 08:10:49;;;;;;;3.80;3.10;;;;;;;16.76;25.31;100932.59;103717;280;38492;-75
2023/03/18 08:13:25;;;;;;;5.60;3.10;;;;;;;17.13;23.87;100933.08;103714;269;38237;-74
2023/03/18 08:16:02;;;;;;;5.80;3.80;;;;;;;17.39;24.29;100931.59;103673;280;40012;-74
2023/03/18 08:18:36;;;;;;;5.00;3.60;;;;;;;17.58;23.29;100928.52;103726;280;38272;-74
2023/03/18 08:21:11;;;;;;;5.20;3.30;;;;;;;17.70;23.55;100922.55;103716;280;38773;-74
2023/03/18 08:23:46;;;;;;;6.70;3.50;;;;;;;18.03;23.22;100921.45;103596;280;39458;-74
2023/03/18 08:26:21;;;;;;;5.70;3.80;;;;;;;18.43;23.15;100921.67;103668;280;38804;-74
2023/03/18 08:28:56;;;;;;;5.50;3.60;;;;;;;18.76;22.89;100918.04;102941;280;895753;-74
2023/03/18 08:31:30;;;;;;;5.50;3.40;;;;;;;18.96;21.66;100915.86;103741;280;38528;-73
2023/03/18 08:34:07;;;;;;;4.10;3.10;;;;;;;18.93;21.92;100910.80;103727;280;39080;-73
2023/03/18 08:36:42;;;;;;;5.10;3.20;;;;;;;19.17;22.08;100907.29;103615;280;38331;-74
2023/03/18 08:39:16;;;;;;;5.20;3.30;;;;;;;19.29;21.95;100906.30;103693;280;38489;-75
2023/03/18 08:41:50;;;;;;;4.90;3.40;;;;;;;19.55;22.21;100904.38;103709;280;38217;-74
2023/03/18 08:44:25;;;;;;;6.30;3.80;;;;;;;19.76;22.41;100899.98;103669;280;38405;-74
2023/03/18 08:46:59;;;;;;;5.50;3.30;;;;;;;20.04;21.86;100902.86;103702;280;38369;-74
2023/03/18 08:49:34;;;;;;;4.50;3.30;;;;;;;20.14;21.47;100898.63;103733;280;38356;-73
2023/03/18 08:52:11;;;;;;;;;;;;;;;20.27;21.29;100899.48;103736;280;38227;-75
2023/03/18 08:54:48;;;;;;;4.10;3.10;;;;;;;20.34;21.35;100893.30;103765;280;38266;-75
2023/03/18 08:57:23;;;;;;;6.40;4.00;;;;;;;20.54;20.92;100891.41;103756;280;38617;-73
2023/03/18 09:00:01;;;;;;;6.70;3.40;;;;;;;20.55;20.29;100885.08;103753;280;39426;-73
2023/03/18 09:02:35;;;;;;;7.70;3.40;;;;;;;20.39;20.79;100885.69;103755;280;38251;-75
2023/03/18 09:05:13;;;;;;;4.70;3.50;;;;;;;20.28;20.61;100886.45;103759;280;38220;-74
2023/03/18 09:07:47;;;;;;;4.20;3.20;;;;;;;20.13;20.82;100887.02;103678;280;38415;-75
2023/03/18 09:10:22;;;;;;;4.00;3.00;;;;;;;20.18;21.55;100889.86;103724;280;38472;-73
2023/03/18 09:12:56;;;;;;;6.10;3.40;;;;;;;20.31;20.55;100884.84;103599;280;174591;-75
2023/03/18 09:15:31;;;;;;;5.00;3.30;;;;;;;20.31;20.71;100880.95;103658;280;40471;-74
2023/03/18 09:18:05;;;;;;;4.70;3.00;;;;;;;20.45;20.88;100879.94;103701;280;39029;-74
2023/03/18 09:20:40;;;;;;;6.20;3.30;;;;;;;20.55;20.72;100876.96;103727;280;39435;-73
2023/03/18 09:23:18;;;;;;;4.20;3.20;;;;;;;20.66;20.70;100879.71;103669;280;38274;-73
2023/03/18 09:25:53;;;;;;;6.20;3.50;;;;;;;20.60;19.98;100877.33;103722;280;38224;-74
2023/03/18 09:28:28;;;;;;;5.60;3.20;;;;;;;20.31;19.97;100878.14;103684;280;39409;-74
2023/03/18 09:31:04;;;;;;;4.70;3.10;;;;;;;20.44;20.88;100873.70;103610;280;38267;-74
2023/03/18 09:33:40;;;;;;;4.00;3.20;;;;;;;20.64;20.33;100874.71;103686;280;39480;-75
2023/03/18 09:36:20;;;;;;;5.70;3.20;;;;;;;20.64;20.09;100869.95;103665;280;39696;-74
2023/03/18 09:39:08;;;;;;;6.20;3.20;;;;;;;20.42;19.46;100866.89;103476;280;41216;-75
2023/03/18 09:41:50;;;;;;;6.70;3.30;;;;;;;20.04;19.35;100865.33;103534;280;171505;-74
2023/03/18 09:44:32;;;;;;;5.50;2.90;;;;;;;19.74;20.26;100869.14;103669;280;38298;-74
2023/03/18 09:47:23;;;;;;;5.00;3.50;;;;;;;19.36;20.61;100860.68;103707;280;38866;-73
2023/03/18 09:50:10;;;;;;;4.60;3.10;;;;;;;19.11;20.41;100864.19;103703;280;39644;-73
2023/03/18 09:52:47;;;;;;;4.50;2.90;;;;;;;18.87;21.15;100859.02;103693;280;38535;-73
2023/03/18 09:55:28;;;;;;;5.50;3.50;;;;;;;18.80;21.08;100860.34;103698;280;40019;-73
2023/03/18 09:58:05;;;;;;;6.30;3.50;;;;;;;18.65;21.47;100863.27;103728;280;38378;-74
2023/03/18 10:00:43;;;;;;;4.80;3.10;;;;;;;18.35;21.09;100865.83;103686;280;38835;-74
2023/03/18 10:03:26;;;;;;;5.50;3.00;;;;;;;17.94;21.02;100866.25;103696;280;38281;-74
2023/03/18 10:06:05;;;;;;;4.70;3.30;;;;;;;17.37;21.86;100866.25;103689;280;39462;-73
2023/03/18 10:08:53;;;;;;;5.00;3.70;;;;;;;17.01;22.43;100858.13;103581;280;174895;-72
2023/03/18 10:11:31;;;;;;;4.70;2.80;;;;;;;16.74;22.56;100862.08;103682;280;38462;-72
2023/03/18 10:14:24;;;;;;;6.40;3.50;;;;;;;16.32;22.68;100856.80;103694;280;39736;-72
2023/03/18 10:17:08;;;;;;;5.60;3.10;;;;;;;15.97;23.39;100850.76;103719;280;38698;-74
2023/03/18 10:19:47;;;;;;;5.30;3.50;;;;;;;15.69;23.67;100851.35;103696;280;38505;-73
2023/03/18 10:22:34;;;;;;;5.40;3.30;;;;;;;15.50;23.81;100848.08;103678;280;39655;-73
2023/03/18 10:25:14;;;;;;;4.60;2.80;;;;;;;15.23;23.67;100840.97;103712;280;38688;-74
2023/03/18 10:27:58;;;;;;;5.20;3.40;;;;;;;15.03;23.54;100840.59;103700;280;39403;-74
2023/03/18 10:30:42;;;;;;;5.50;2.80;;;;;;;14.80;23.91;100844.13;103661;280;38523;-74
2023/03/18 10:33:23;;;;;;;4.40;2.70;;;;;;;14.71;24.25;100839.50;103713;280;38234;-74
2023/03/18 10:36:02;;;;;;;7.90;3.70;;;;;;;14.69;24.57;100840.65;103720;272;38401;-75
2023/03/18 10:38:39;;;;;;;6.60;3.40;;;;;;;14.65;24.95;100839.59;103687;280;40206;-74
2023/03/18 10:41:20;;;;;;;5.30;3.60;;;;;;;14.55;25.39;100838.13;103701;280;39184;-73
2023/03/18 10:43:54;;;;;;;7.60;3.70;;;;;;;14.48;25.64;100833.71;103712;280;38725;-71
2023/03/18 10:46:29;;;;;;;5.20;3.40;;;;;;;14.44;26.01;100836.86;103702;280;39361;-74
2023/03/18 10:49:06;;;;;;;6.70;3.20;;;;;;;14.31;25.57;100834.48;103678;280;38400;-74
2023/03/18 10:51:45;;;;;;;5.10;3.60;;;;;;;14.15;26.01;100837.67;103715;280;38606;-74
2023/03/18 10:54:24;;;;;;;4.50;3.30;;;;;;;14.09;25.83;100834.08;103577;280;171936;-73
2023/03/18 10:56:58;;;;;;;4.70;2.60;;;;;;;14.05;26.04;100834.79;103710;280;38393;-73
2023/03/18 10:59:33;;;;;;;6.00;3.20;;;;;;;13.99;25.85;100829.42;103661;280;39644;-71
2023/03/18 11:02:12;;;;;;;5.90;3.50;;;;;;;13.94;25.86;100818.08;103707;280;39396;-71
2023/03/18 11:04:48;;;;;;;;;;;;;;;13.84;25.70;100819.58;103725;280;38292;-73
2023/03/18 11:07:24;;;;;;;6.10;3.50;;;;;;;13.69;25.92;100819.38;103676;280;39985;-71
2023/03/18 11:10:12;;;;;;;4.00;3.00;;;;;;;13.58;25.84;100815.30;103703;280;38521;-73
2023/03/18 11:12:46;;;;;;;5.50;3.20;;;;;;;13.48;26.24;100815.89;103652;280;39847;-73
2023/03/18 11:15:24;;;;;;;6.90;3.20;;;;;;;13.39;26.52;100815.56;103720;280;38246;-73
2023/03/18 11:18:01;;;;;;;5.80;3.40;;;;;;;13.36;26.67;100817.83;103719;280;38987;-72
2023/03/18 11:20:42;;;;;;;5.30;3.50;;;;;;;13.29;27.02;100812.53;103739;280;39548;-72
2023/03/18 11:23:45;;;;;;;6.30;3.40;;;;;;;13.27;27.01;100814.50;103673;280;38726;-73
2023/03/18 11:26:26;;;;;;;6.30;3.70;;;;;;;13.24;27.22;100806.77;103770;280;38443;-74
2023/03/18 11:29:04;;;;;;;5.10;2.90;;;;;;;13.14;27.14;100803.10;103659;280;39431;-73
2023/03/18 11:31:51;;;;;;;7.40;3.60;;;;;;;13.04;27.55;100793.02;103731;280;38275;-74
2023/03/18 11:34:24;;;;;;;5.50;3.10;;;;;;;13.06;27.99;100795.05;103674;280;39994;-74
2023/03/18 11:37:03;;;;;;;5.70;3.90;;;;;;;13.09;27.66;100794.89;103735;280;38254;-73
2023/03/18 11:39:40;;;;;;;7.10;3.40;;;;;;;13.10;27.83;100790.32;103718;280;39124;-74
2023/03/18 11:42:21;;;;;;;6.10;3.50;;;;;;;13.12;27.60;100785.66;103692;272;38687;-74
2023/03/18 11:44:57;;;;;;;6.70;3.30;;;;;;;13.14;27.39;100787.53;103742;280;38365;-73
2023/03/18 11:47:33;;;;;;;5.50;3.10;;;;;;;13.13;27.44;100786.33;103649;280;38538;-73
2023/03/18 11:50:14;;;;;;;4.20;3.20;;;;;;;13.09;27.50;100780.36;103624;280;38236;-74
2023/03/18 11:52:50;;;;;;;5.70;3.30;;;;;;;13.07;27.53;100776.95;103749;280;38221;-75
2023/03/18 11:55:31;;;;;;;5.10;3.20;;;;;;;13.04;27.15;100782.88;103689;280;39907;-73
2023/03/18 11:58:45;;;;;;;6.60;3.40;;;;;;;12.91;27.37;100776.94;103699;280;40026;-73
2023/03/18 12:01:23;;;;;;;6.40;3.00;;;;;;;12.85;27.47;100771.05;103666;280;39720;-75
2023/03/18 12:04:27;;;;;;;5.40;3.20;;;;;;;12.84;27.33;100777.39;103681;280;38541;-76
2023/03/18 12:07:36;;;;;;;9.00;2.90;;;;;;;12.81;27.70;100771.57;103699;280;39487;-75
2023/03/18 12:10:20;;;;;;;7.20;3.50;;;;;;;12.77;27.46;100771.20;103719;280;39401;-74
2023/03/18 12:13:16;;;;;;;4.70;3.10;;;;;;;12.70;27.99;100766.59;103731;280;38566;-74